Time;durP1;ratioP1;P1;durP2;ratioP2;P2;SDS_P1;SDS_P2;PMS_P1;PMS_P2;Temp;Humidity;BMP_temperature;BMP_pressure;BME280_temperature;BME280_humidity;BME280_pressure;Samples;Min_cycle;Max_cycle;Signal;HPM_P1;HPM_P2
2021/05/18 00:00:36;;;;;;;8.63;2.80;;;;;;;;;;4418554;32;20656;-56
2021/05/18 00:03:03;;;;;;;6.95;2.50;;;;;;;;;;4419971;32;20591;-56
2021/05/18 00:05:29;;;;;;;7.53;2.25;;;;;;;;;;4419793;32;20209;-57
2021/05/18 00:13:05;;;;;;;9.02;2.92;;;;;;;;;;4419845;32;20251;-56
2021/05/18 00:15:31;;;;;;;8.57;2.60;;;;;;;;;;4406151;32;20362;-57
2021/05/18 00:17:56;;;;;;;20.48;8.20;;;;;;;;;;4419874;32;20221;-55
2021/05/18 00:20:22;;;;;;;14.57;5.45;;;;;;;;;;4418711;32;20322;-57
2021/05/18 00:22:48;;;;;;;12.18;5.55;;;;;;;;;;4419742;32;20193;-56
2021/05/18 00:25:15;;;;;;;7.05;2.72;;;;;;;;;;4419689;32;20301;-56
2021/05/18 00:27:41;;;;;;;10.27;3.53;;;;;;;;;;4419611;32;20197;-56
2021/05/18 00:30:09;;;;;;;12.65;3.33;;;;;;;;;;4419725;32;20325;-56
2021/05/18 00:32:35;;;;;;;7.80;4.10;;;;;;;;;;4419380;32;20205;-57
2021/05/18 00:35:01;;;;;;;5.47;2.80;;;;;;;;;;4419301;32;20224;-56
2021/05/18 00:37:27;;;;;;;10.55;2.78;;;;;;;;;;4419773;32;20577;-58
2021/05/18 00:39:53;;;;;;;7.00;2.62;;;;;;;;;;4419339;32;20673;-56
2021/05/18 00:42:21;;;;;;;6.43;2.47;;;;;;;;;;4419649;32;20280;-57
2021/05/18 00:44:48;;;;;;;4.47;2.17;;;;;;;;;;4419522;32;20348;-56
2021/05/18 00:47:14;;;;;;;2.58;1.92;;;;;;;;;;4419674;32;20257;-56
2021/05/18 00:49:39;;;;;;;4.43;2.03;;;;;;;;;;4418951;32;20225;-56
2021/05/18 00:52:06;;;;;;;9.57;2.37;;;;;;;;;;4419237;32;20302;-57
2021/05/18 00:54:40;;;;;;;7.22;2.40;;;;;;;;;;4419035;32;20244;-55
2021/05/18 00:59:50;;;;;;;5.93;2.60;;;;;;;;;;4419423;32;20601;-55
2021/05/18 01:02:16;;;;;;;5.72;2.37;;;;;;;;;;4408916;32;20222;-56
2021/05/18 01:04:43;;;;;;;5.87;2.97;;;;;;;;;;4419142;32;20295;-55
2021/05/18 01:07:10;;;;;;;6.93;1.95;;;;;;;;;;4419201;32;20674;-55
2021/05/18 01:09:35;;;;;;;11.55;2.47;;;;;;;;;;4419196;32;20340;-55
2021/05/18 01:12:01;;;;;;;6.82;2.50;;;;;;;;;;4419290;32;20463;-56
2021/05/18 01:14:26;;;;;;;9.02;2.37;;;;;;;;;;4419353;32;20228;-56
2021/05/18 01:16:53;;;;;;;7.47;2.55;;;;;;;;;;4419410;32;20737;-56
2021/05/18 01:19:21;;;;;;;7.03;2.42;;;;;;;;;;4417495;32;20237;-56
2021/05/18 01:21:47;;;;;;;12.20;2.60;;;;;;;;;;4419140;32;20244;-56
2021/05/18 01:24:17;;;;;;;6.22;2.53;;;;;;;;;;4418899;32;20288;-56
2021/05/18 01:26:42;;;;;;;8.80;3.15;;;;;;;;;;4418761;32;20633;-56
2021/05/18 01:29:09;;;;;;;9.43;3.47;;;;;;;;;;4419082;32;20294;-56
2021/05/18 01:31:35;;;;;;;6.43;2.85;;;;;;;;;;4418780;32;20287;-56
2021/05/18 01:34:03;;;;;;;9.00;2.80;;;;;;;;;;4418848;32;20255;-56
2021/05/18 01:36:31;;;;;;;12.23;2.90;;;;;;;;;;4418841;32;20217;-56
2021/05/18 01:44:26;;;;;;;6.80;3.28;;;;;;;;;;4392554;32;20303;-57
2021/05/18 01:46:53;;;;;;;3.83;1.92;;;;;;;;;;4418690;32;20737;-56
2021/05/18 01:49:18;;;;;;;6.50;2.50;;;;;;;;;;4418616;32;20226;-56
2021/05/18 01:51:50;;;;;;;6.90;2.47;;;;;;;;;;4413328;32;20311;-58
2021/05/18 01:54:25;;;;;;;13.02;2.72;;;;;;;;;;4403525;32;20226;-57
2021/05/18 01:57:04;;;;;;;4.53;2.50;;;;;;;;;;4420271;32;20226;-57
2021/05/18 01:59:31;;;;;;;3.42;2.05;;;;;;;;;;4418445;32;20659;-56
2021/05/18 02:02:02;;;;;;;11.60;2.78;;;;;;;;;;4417521;32;20209;-57
2021/05/18 02:04:29;;;;;;;8.75;2.72;;;;;;;;;;4418383;32;20260;-56
2021/05/18 02:06:55;;;;;;;15.10;2.83;;;;;;;;;;4418316;32;20298;-55
2021/05/18 02:09:21;;;;;;;7.77;2.83;;;;;;;;;;4418609;32;20568;-56
2021/05/18 02:11:48;;;;;;;7.72;2.47;;;;;;;;;;4418553;32;20252;-56
2021/05/18 02:14:24;;;;;;;4.80;2.50;;;;;;;;;;4418340;32;20292;-55
2021/05/18 02:16:51;;;;;;;6.03;2.77;;;;;;;;;;4418432;32;20189;-56
2021/05/18 02:25:03;;;;;;;6.80;2.83;;;;;;;;;;4418226;32;20282;-55
2021/05/18 02:27:20;;;;;;;3.43;2.73;;;;;;;;;;4417519;32;20554;-56
2021/05/18 02:29:46;;;;;;;18.73;3.27;;;;;;;;;;4418220;32;20371;-56
2021/05/18 02:32:11;;;;;;;7.23;3.23;;;;;;;;;;4417902;32;20742;-56
2021/05/18 02:34:36;;;;;;;10.00;3.55;;;;;;;;;;4404631;32;20296;-56
2021/05/18 02:37:03;;;;;;;9.13;4.85;;;;;;;;;;4400125;32;20237;-57
2021/05/18 02:39:29;;;;;;;6.40;3.07;;;;;;;;;;4402993;32;20308;-56
2021/05/18 02:41:54;;;;;;;13.52;2.60;;;;;;;;;;4402661;32;20300;-58
2021/05/18 02:49:50;;;;;;;3.97;2.08;;;;;;;;;;4402851;32;20655;-56
2021/05/18 02:52:16;;;;;;;4.35;2.37;;;;;;;;;;4394266;32;20289;-58
2021/05/18 02:54:46;;;;;;;10.83;2.83;;;;;;;;;;4387579;32;20335;-57
2021/05/18 02:57:12;;;;;;;5.75;2.37;;;;;;;;;;4387458;32;20292;-55
2021/05/18 02:59:38;;;;;;;8.80;2.97;;;;;;;;;;4386378;32;20230;-55
2021/05/18 03:02:04;;;;;;;8.45;3.17;;;;;;;;;;4387378;32;20347;-56
2021/05/18 03:04:30;;;;;;;13.33;2.40;;;;;;;;;;4387414;32;20546;-56
2021/05/18 03:06:57;;;;;;;8.15;2.30;;;;;;;;;;4398744;32;20233;-56
2021/05/18 03:09:23;;;;;;;7.37;2.60;;;;;;;;;;4387443;32;20241;-56
2021/05/18 03:11:51;;;;;;;7.55;2.15;;;;;;;;;;4387256;32;20553;-56
2021/05/18 03:14:18;;;;;;;5.83;1.80;;;;;;;;;;4387516;32;20272;-56
2021/05/18 03:16:45;;;;;;;6.55;2.10;;;;;;;;;;4387431;32;20267;-57
2021/05/18 03:19:11;;;;;;;5.07;1.80;;;;;;;;;;4395636;32;20546;-56
2021/05/18 03:21:41;;;;;;;7.17;2.00;;;;;;;;;;4402455;32;20356;-56
2021/05/18 03:24:08;;;;;;;5.80;2.20;;;;;;;;;;4402467;32;20252;-56
2021/05/18 03:26:36;;;;;;;3.40;1.73;;;;;;;;;;4402026;32;20217;-57
2021/05/18 03:29:12;;;;;;;9.37;2.83;;;;;;;;;;4402144;32;20643;-56
2021/05/18 03:34:28;;;;;;;3.78;2.03;;;;;;;;;;4371833;32;20398;-56
2021/05/18 03:36:55;;;;;;;4.75;1.92;;;;;;;;;;4380414;32;20238;-57
2021/05/18 03:39:20;;;;;;;4.20;1.85;;;;;;;;;;4387039;32;20259;-55
2021/05/18 03:52:39;;;;;;;5.33;2.40;;;;;;;;;;4386749;32;20232;-55
2021/05/18 03:58:34;;;;;;;7.62;3.05;;;;;;;;;;4386753;32;20621;-56
2021/05/18 04:03:30;;;;;;;7.37;3.27;;;;;;;;;;4385999;32;20339;-56
2021/05/18 04:19:06;;;;;;;8.37;3.00;;;;;;;;;;4386361;32;20350;-56
2021/05/18 04:40:54;;;;;;;10.67;4.67;;;;;;;;;;4388640;32;20220;-56
2021/05/18 04:49:08;;;;;;;5.73;2.67;;;;;;;;;;4388707;32;20279;-56
2021/05/18 04:59:56;;;;;;;6.53;2.60;;;;;;;;;;4373796;32;20252;-56
2021/05/18 05:08:31;;;;;;;5.25;3.67;;;;;;;;;;4388261;32;20213;-56
2021/05/18 05:15:39;;;;;;;9.65;3.47;;;;;;;;;;4388867;32;20277;-56
2021/05/18 05:18:04;;;;;;;11.30;4.18;;;;;;;;;;4388122;32;20241;-56
2021/05/18 05:20:30;;;;;;;8.80;2.67;;;;;;;;;;4388804;32;20315;-56
2021/05/18 05:22:56;;;;;;;5.70;2.70;;;;;;;;;;4388670;32;20303;-56
2021/05/18 05:25:22;;;;;;;3.53;2.35;;;;;;;;;;4388709;32;20327;-56
2021/05/18 05:27:47;;;;;;;6.10;2.45;;;;;;;;;;4388619;32;20325;-57
2021/05/18 05:30:13;;;;;;;5.05;2.35;;;;;;;;;;4400248;32;20403;-55
2021/05/18 05:32:38;;;;;;;12.45;2.40;;;;;;;;;;4388219;32;20292;-56
2021/05/18 05:35:05;;;;;;;3.95;2.03;;;;;;;;;;4388362;32;20303;-56
2021/05/18 05:37:30;;;;;;;5.30;2.40;;;;;;;;;;4402199;32;20661;-56
2021/05/18 05:39:56;;;;;;;4.82;2.20;;;;;;;;;;4390098;32;20323;-57
2021/05/18 05:42:23;;;;;;;23.70;5.60;;;;;;;;;;4403349;32;20392;-56
2021/05/18 05:44:48;;;;;;;38.20;8.63;;;;;;;;;;4402692;32;20293;-56
2021/05/18 05:47:14;;;;;;;11.88;3.78;;;;;;;;;;4402035;32;20491;-56
2021/05/18 05:49:40;;;;;;;8.55;3.00;;;;;;;;;;4401377;32;20225;-56
2021/05/18 05:52:06;;;;;;;7.22;2.60;;;;;;;;;;4391286;32;20688;-57
2021/05/18 05:54:34;;;;;;;5.35;2.10;;;;;;;;;;4371822;32;20685;-57
2021/05/18 05:57:00;;;;;;;5.85;2.20;;;;;;;;;;4370397;32;20222;-57
2021/05/18 05:59:26;;;;;;;4.00;2.37;;;;;;;;;;4371261;32;20297;-57
2021/05/18 06:01:51;;;;;;;5.60;2.72;;;;;;;;;;4370713;32;20330;-56
2021/05/18 06:04:17;;;;;;;29.63;6.55;;;;;;;;;;4370251;32;20714;-56
2021/05/18 06:06:42;;;;;;;9.88;2.92;;;;;;;;;;4371030;32;20292;-56
2021/05/18 06:09:09;;;;;;;12.30;2.37;;;;;;;;;;4371125;32;20222;-56
2021/05/18 06:42:03;;;;;;;5.93;3.08;;;;;;;;;;4402242;32;20215;-57
2021/05/18 06:52:38;;;;;;;20.95;3.78;;;;;;;;;;4401977;32;20197;-57
2021/05/18 06:55:06;;;;;;;12.93;3.75;;;;;;;;;;4401911;32;20323;-56
2021/05/18 06:57:35;;;;;;;13.15;3.80;;;;;;;;;;4400450;32;20323;-56
2021/05/18 07:00:08;;;;;;;7.75;3.10;;;;;;;;;;4401614;32;20221;-56
2021/05/18 07:02:34;;;;;;;6.63;3.50;;;;;;;;;;4401570;32;20319;-56
2021/05/18 07:04:59;;;;;;;9.68;3.40;;;;;;;;;;4401807;32;20280;-56
2021/05/18 07:07:29;;;;;;;18.75;4.50;;;;;;;;;;4401711;32;20649;-57
2021/05/18 07:09:54;;;;;;;13.30;3.65;;;;;;;;;;4402089;32;20256;-56
2021/05/18 07:12:20;;;;;;;9.48;3.03;;;;;;;;;;4401593;32;20331;-56
2021/05/18 07:14:45;;;;;;;6.28;2.55;;;;;;;;;;4401719;32;20297;-56
2021/05/18 07:17:11;;;;;;;6.68;3.17;;;;;;;;;;4402013;32;20352;-56
2021/05/18 07:19:36;;;;;;;5.22;2.75;;;;;;;;;;4401994;32;20295;-56
2021/05/18 07:22:03;;;;;;;6.07;2.93;;;;;;;;;;4402090;32;20367;-56
2021/05/18 07:24:30;;;;;;;8.30;2.90;;;;;;;;;;4401894;32;20336;-57
2021/05/18 07:26:57;;;;;;;10.70;3.10;;;;;;;;;;4401882;32;20375;-57
2021/05/18 07:29:23;;;;;;;8.10;3.20;;;;;;;;;;4402001;32;20302;-57
2021/05/18 07:31:48;;;;;;;8.52;3.30;;;;;;;;;;4401573;32;20284;-57
2021/05/18 07:34:14;;;;;;;14.63;4.40;;;;;;;;;;4387912;32;20249;-56
2021/05/18 07:36:39;;;;;;;5.65;3.12;;;;;;;;;;4400527;32;20296;-56
2021/05/18 07:39:05;;;;;;;10.15;3.53;;;;;;;;;;4401411;32;20300;-56
2021/05/18 07:41:32;;;;;;;7.90;3.25;;;;;;;;;;4387760;32;20694;-57
2021/05/18 07:43:59;;;;;;;10.32;3.03;;;;;;;;;;4401280;32;20320;-57
2021/05/18 07:46:25;;;;;;;15.93;3.03;;;;;;;;;;4401111;32;20324;-58
2021/05/18 07:59:37;;;;;;;6.32;2.80;;;;;;;;;;4403701;32;20281;-57
2021/05/18 08:07:21;;;;;;;9.05;3.62;;;;;;;;;;4404362;32;20363;-57
2021/05/18 08:10:12;;;;;;;9.23;2.87;;;;;;;;;;4404282;32;20255;-57
2021/05/18 08:12:32;;;;;;;3.92;2.40;;;;;;;;;;4392682;32;20363;-56
2021/05/18 10:36:42;;;;;;;11.73;2.53;;;;;;;;;;4402538;32;20229;-57
2021/05/18 10:39:25;;;;;;;7.72;1.30;;;;;;;;;;4402678;32;20217;-56
2021/05/18 10:41:51;;;;;;;5.90;1.08;;;;;;;;;;4402803;32;20579;-56
2021/05/18 10:44:18;;;;;;;2.65;1.20;;;;;;;;;;4402686;32;20259;-56
2021/05/18 10:46:49;;;;;;;3.33;0.80;;;;;;;;;;4402821;32;20201;-56
2021/05/18 10:49:18;;;;;;;6.10;2.87;;;;;;;;;;4402657;32;20224;-56
2021/05/18 10:51:55;;;;;;;11.20;1.60;;;;;;;;;;4402694;32;20198;-57
2021/05/18 10:54:27;;;;;;;2.67;1.05;;;;;;;;;;4402688;32;20262;-57
2021/05/18 10:56:53;;;;;;;2.95;1.20;;;;;;;;;;4402446;32;20526;-57
2021/05/18 10:59:19;;;;;;;17.55;7.55;;;;;;;;;;4402229;32;20237;-56
2021/05/18 11:01:46;;;;;;;5.12;1.75;;;;;;;;;;4401965;32;20268;-57
2021/05/18 11:04:12;;;;;;;2.35;1.02;;;;;;;;;;4402561;32;20235;-56
2021/05/18 11:06:54;;;;;;;5.28;1.60;;;;;;;;;;4402584;32;20193;-57
2021/05/18 11:09:21;;;;;;;0.98;0.88;;;;;;;;;;4402886;32;20251;-56
2021/05/18 11:11:48;;;;;;;5.62;1.48;;;;;;;;;;4402334;32;20758;-57
2021/05/18 11:14:17;;;;;;;2.53;1.02;;;;;;;;;;4402648;32;20217;-57
2021/05/18 11:16:43;;;;;;;1.40;1.10;;;;;;;;;;4402505;32;20337;-56
2021/05/18 11:19:13;;;;;;;11.90;1.70;;;;;;;;;;4402319;32;20548;-56
2021/05/18 11:21:44;;;;;;;6.93;1.25;;;;;;;;;;4401787;32;20197;-57
2021/05/18 11:24:13;;;;;;;3.05;1.60;;;;;;;;;;4402550;32;20225;-56
2021/05/18 11:26:49;;;;;;;4.72;1.33;;;;;;;;;;4402383;32;20261;-57
2021/05/18 11:29:15;;;;;;;5.82;1.40;;;;;;;;;;4402369;32;20213;-57
2021/05/18 11:31:41;;;;;;;4.60;0.90;;;;;;;;;;4402284;32;20307;-57
2021/05/18 11:34:07;;;;;;;1.05;0.95;;;;;;;;;;4402134;32;20269;-56
2021/05/18 11:36:39;;;;;;;6.28;1.30;;;;;;;;;;4403467;32;20315;-56
2021/05/18 11:39:16;;;;;;;1.33;0.90;;;;;;;;;;4398899;32;20644;-56
2021/05/18 11:41:43;;;;;;;6.05;1.10;;;;;;;;;;4400492;32;20327;-57
2021/05/18 11:44:11;;;;;;;2.62;0.82;;;;;;;;;;4397723;32;20606;-55
2021/05/18 11:46:45;;;;;;;5.10;3.45;;;;;;;;;;4402345;32;20210;-56
2021/05/18 11:49:13;;;;;;;9.63;5.50;;;;;;;;;;4402174;32;20225;-56
2021/05/18 11:51:48;;;;;;;2.95;1.77;;;;;;;;;;4402057;32;20506;-56
2021/05/18 11:54:15;;;;;;;6.03;1.35;;;;;;;;;;4402385;32;20217;-56
2021/05/18 11:56:42;;;;;;;1.05;0.80;;;;;;;;;;4402390;32;20233;-55
2021/05/18 11:59:10;;;;;;;1.25;0.80;;;;;;;;;;4413650;32;20233;-56
2021/05/18 12:01:37;;;;;;;3.72;0.98;;;;;;;;;;4402126;32;20240;-56
2021/05/18 12:04:10;;;;;;;4.18;3.15;;;;;;;;;;4402168;32;20217;-56
2021/05/18 12:06:40;;;;;;;3.12;1.75;;;;;;;;;;4402323;32;20616;-57
2021/05/18 12:09:07;;;;;;;7.32;1.15;;;;;;;;;;4402213;32;20566;-56
2021/05/18 12:11:34;;;;;;;8.27;2.62;;;;;;;;;;4402146;32;20267;-57
2021/05/18 12:13:59;;;;;;;8.05;1.87;;;;;;;;;;4402096;32;20285;-55
2021/05/18 12:16:26;;;;;;;4.70;2.42;;;;;;;;;;4401682;32;20346;-56
2021/05/18 12:18:58;;;;;;;1.67;1.10;;;;;;;;;;4401940;32;20317;-56
2021/05/18 12:21:30;;;;;;;0.98;0.60;;;;;;;;;;4402043;32;20205;-56
2021/05/18 12:24:10;;;;;;;1.10;0.50;;;;;;;;;;4401931;32;20363;-57
2021/05/18 12:26:57;;;;;;;6.37;0.80;;;;;;;;;;4402226;32;20463;-57
2021/05/18 12:29:41;;;;;;;2.42;0.80;;;;;;;;;;4401824;32;20795;-57
2021/05/18 12:32:14;;;;;;;4.82;0.80;;;;;;;;;;4401508;32;20610;-57
2021/05/18 12:34:39;;;;;;;10.43;0.80;;;;;;;;;;4401692;32;20225;-56
2021/05/18 12:37:05;;;;;;;7.70;0.62;;;;;;;;;;4401781;32;20299;-57
2021/05/18 12:39:32;;;;;;;2.42;0.65;;;;;;;;;;4401697;32;20648;-57
2021/05/18 12:42:01;;;;;;;2.28;0.88;;;;;;;;;;4401294;32;20268;-56
2021/05/18 12:44:28;;;;;;;2.90;0.70;;;;;;;;;;4401650;32;20260;-56
2021/05/18 12:47:05;;;;;;;0.90;0.62;;;;;;;;;;4403103;32;20376;-56
2021/05/18 12:49:34;;;;;;;7.87;2.40;;;;;;;;;;4404475;32;20271;-56
2021/05/18 12:52:14;;;;;;;1.33;0.70;;;;;;;;;;4404349;32;20563;-56
2021/05/18 12:54:51;;;;;;;2.53;0.80;;;;;;;;;;4404493;32;20343;-56
2021/05/18 12:57:20;;;;;;;2.97;0.60;;;;;;;;;;4404518;32;20505;-56
2021/05/18 12:59:59;;;;;;;1.55;0.80;;;;;;;;;;4415614;32;20233;-57
2021/05/18 13:02:45;;;;;;;3.92;1.30;;;;;;;;;;4404556;32;20224;-56
2021/05/18 13:05:18;;;;;;;1.27;0.73;;;;;;;;;;4404146;32;20189;-56
2021/05/18 13:08:12;;;;;;;3.00;1.12;;;;;;;;;;4402953;32;20252;-56
2021/05/18 13:13:39;;;;;;;4.12;0.90;;;;;;;;;;4403157;32;20216;-57
2021/05/18 13:16:16;;;;;;;1.65;1.00;;;;;;;;;;4404157;32;20371;-57
2021/05/18 13:18:51;;;;;;;2.37;1.52;;;;;;;;;;4403875;32;20287;-56
2021/05/18 13:21:19;;;;;;;3.80;2.03;;;;;;;;;;4403998;32;20247;-56
2021/05/18 13:26:26;;;;;;;2.78;0.80;;;;;;;;;;4403826;32;20428;-56
2021/05/18 13:29:12;;;;;;;4.22;0.62;;;;;;;;;;4404104;32;20407;-57
2021/05/18 13:31:38;;;;;;;4.87;0.80;;;;;;;;;;4403632;32;20205;-56
2021/05/18 13:34:05;;;;;;;2.37;1.20;;;;;;;;;;4403886;32;20255;-57
2021/05/18 13:36:33;;;;;;;4.50;1.10;;;;;;;;;;4403987;32;20221;-56
2021/05/18 13:39:08;;;;;;;5.18;0.98;;;;;;;;;;4403889;32;20243;-56
2021/05/18 13:41:34;;;;;;;6.05;0.95;;;;;;;;;;4403641;32;20258;-56
2021/05/18 13:44:05;;;;;;;5.87;0.70;;;;;;;;;;4403562;32;20222;-56
2021/05/18 13:46:31;;;;;;;5.72;2.47;;;;;;;;;;4403584;32;20369;-56
2021/05/18 13:48:57;;;;;;;3.90;1.75;;;;;;;;;;4403493;32;20252;-56
2021/05/18 13:51:22;;;;;;;10.95;3.87;;;;;;;;;;4403346;32;20356;-57
2021/05/18 13:53:48;;;;;;;3.53;2.10;;;;;;;;;;4403731;32;20217;-56
2021/05/18 13:56:15;;;;;;;4.53;0.90;;;;;;;;;;4402071;32;20292;-56
2021/05/18 13:58:40;;;;;;;6.35;1.40;;;;;;;;;;4414832;32;20363;-56
2021/05/18 14:01:08;;;;;;;3.78;1.80;;;;;;;;;;4403377;32;20361;-56
2021/05/18 14:03:34;;;;;;;1.55;0.80;;;;;;;;;;4403494;32;20221;-57
2021/05/18 14:06:00;;;;;;;1.00;0.62;;;;;;;;;;4403486;32;20758;-57
2021/05/18 14:08:36;;;;;;;7.32;0.80;;;;;;;;;;4402920;32;20688;-56
2021/05/18 14:11:34;;;;;;;1.25;0.70;;;;;;;;;;4403486;32;20356;-57
2021/05/18 14:13:59;;;;;;;1.30;0.60;;;;;;;;;;4401715;32;20708;-56
2021/05/18 14:16:25;;;;;;;1.75;0.80;;;;;;;;;;4403227;32;20268;-57
2021/05/18 14:18:57;;;;;;;3.33;1.00;;;;;;;;;;4402595;32;20229;-57
2021/05/18 14:21:23;;;;;;;1.52;0.82;;;;;;;;;;4389180;32;20305;-57
2021/05/18 14:26:18;;;;;;;2.55;1.23;;;;;;;;;;4402763;32;20707;-57
2021/05/18 14:28:44;;;;;;;6.87;0.90;;;;;;;;;;4402123;32;20271;-56
2021/05/18 14:31:12;;;;;;;3.42;1.15;;;;;;;;;;4402473;32;20347;-57
2021/05/18 14:33:38;;;;;;;10.23;1.10;;;;;;;;;;4401058;32;20320;-57
2021/05/18 14:36:06;;;;;;;2.42;1.25;;;;;;;;;;4402403;32;20255;-57
2021/05/18 14:38:32;;;;;;;5.95;0.90;;;;;;;;;;4401622;32;20242;-56
2021/05/18 14:46:12;;;;;;;4.20;0.85;;;;;;;;;;4400208;32;20368;-55
2021/05/18 14:56:49;;;;;;;6.25;1.08;;;;;;;;;;4401041;32;20630;-56
2021/05/18 14:59:15;;;;;;;1.40;0.60;;;;;;;;;;4402449;32;20213;-56
2021/05/18 15:01:40;;;;;;;1.17;0.82;;;;;;;;;;4402087;32;20306;-56
2021/05/18 15:04:06;;;;;;;1.60;0.82;;;;;;;;;;4402397;32;20290;-54
2021/05/18 15:06:32;;;;;;;1.20;1.08;;;;;;;;;;4401510;32;20296;-57
2021/05/18 15:08:57;;;;;;;1.85;0.80;;;;;;;;;;4400497;32;20217;-55
2021/05/18 15:11:23;;;;;;;6.28;0.90;;;;;;;;;;4402260;32;20530;-55
2021/05/18 15:13:49;;;;;;;2.58;0.60;;;;;;;;;;4402443;32;20225;-55
2021/05/18 15:16:14;;;;;;;0.62;0.60;;;;;;;;;;4402215;32;20691;-56
2021/05/18 15:18:40;;;;;;;3.87;1.00;;;;;;;;;;4401846;32;20221;-55
2021/05/18 15:21:06;;;;;;;3.97;0.70;;;;;;;;;;4402102;32;20264;-54
2021/05/18 15:23:31;;;;;;;3.00;1.00;;;;;;;;;;4402053;32;20606;-57
2021/05/18 15:25:58;;;;;;;1.80;1.23;;;;;;;;;;4401951;32;20268;-57
2021/05/18 15:28:23;;;;;;;1.60;1.02;;;;;;;;;;4402050;32;20256;-57
2021/05/18 15:30:49;;;;;;;1.25;0.70;;;;;;;;;;4402156;32;20273;-57
2021/05/18 15:33:14;;;;;;;0.65;0.40;;;;;;;;;;4402099;32;20236;-57
2021/05/18 15:35:40;;;;;;;1.30;0.70;;;;;;;;;;4401961;32;20280;-57
2021/05/18 15:38:06;;;;;;;3.53;1.60;;;;;;;;;;4400790;32;20344;-57
2021/05/18 15:40:32;;;;;;;0.93;0.80;;;;;;;;;;4401975;32;20584;-57
2021/05/18 15:42:57;;;;;;;1.30;0.80;;;;;;;;;;4401934;32;20549;-57
2021/05/18 15:45:23;;;;;;;8.13;1.35;;;;;;;;;;4401351;32;20240;-56
2021/05/18 15:47:49;;;;;;;1.10;0.98;;;;;;;;;;4401978;32;20651;-56
2021/05/18 15:50:15;;;;;;;2.12;0.80;;;;;;;;;;4401658;32;20307;-57
2021/05/18 15:52:41;;;;;;;4.62;0.52;;;;;;;;;;4401698;32;20710;-57
2021/05/18 15:55:07;;;;;;;1.15;0.60;;;;;;;;;;4413819;32;20276;-57
2021/05/18 15:57:33;;;;;;;2.28;0.70;;;;;;;;;;4401985;32;20213;-56
2021/05/18 15:59:58;;;;;;;1.90;0.82;;;;;;;;;;4401812;32;20709;-55
2021/05/18 16:02:24;;;;;;;2.50;0.77;;;;;;;;;;4401699;32;20276;-56
2021/05/18 16:04:49;;;;;;;2.60;0.73;;;;;;;;;;4401516;32;20225;-55
2021/05/18 16:07:17;;;;;;;0.85;0.65;;;;;;;;;;4401782;32;20433;-56
2021/05/18 16:09:43;;;;;;;2.70;0.80;;;;;;;;;;4401601;32;20546;-56
2021/05/18 16:12:09;;;;;;;4.93;1.00;;;;;;;;;;4401794;32;20330;-56
2021/05/18 16:14:35;;;;;;;8.40;1.20;;;;;;;;;;4401594;32;20232;-56
2021/05/18 16:17:01;;;;;;;7.03;1.45;;;;;;;;;;4401776;32;20319;-56
2021/05/18 16:19:27;;;;;;;3.65;1.70;;;;;;;;;;4413045;32;20379;-56
2021/05/18 16:21:52;;;;;;;3.12;1.62;;;;;;;;;;4404721;32;20331;-56
2021/05/18 16:24:20;;;;;;;4.03;1.50;;;;;;;;;;4404631;32;20217;-56
2021/05/18 16:26:46;;;;;;;3.08;1.45;;;;;;;;;;4404360;32;20678;-55
2021/05/18 16:29:11;;;;;;;3.95;1.52;;;;;;;;;;4404496;32;20321;-55
2021/05/18 16:31:37;;;;;;;3.17;1.37;;;;;;;;;;4404532;32;20315;-56
2021/05/18 16:34:03;;;;;;;2.25;1.37;;;;;;;;;;4404435;32;20860;-55
2021/05/18 16:36:28;;;;;;;4.53;1.75;;;;;;;;;;4404244;32;20288;-55
2021/05/18 16:38:55;;;;;;;5.20;2.05;;;;;;;;;;4404287;32;20276;-55
2021/05/18 16:41:21;;;;;;;4.05;0.90;;;;;;;;;;4404117;32;20222;-56
2021/05/18 16:43:47;;;;;;;4.50;1.45;;;;;;;;;;4404363;32;20271;-55
2021/05/18 16:46:13;;;;;;;1.40;0.88;;;;;;;;;;4404255;32;20701;-55
2021/05/18 16:48:38;;;;;;;4.53;0.80;;;;;;;;;;4403824;32;20255;-56
2021/05/18 16:51:05;;;;;;;4.03;0.77;;;;;;;;;;4404295;32;20345;-55
2021/05/18 16:53:32;;;;;;;4.20;0.70;;;;;;;;;;4404044;32;20252;-55
2021/05/18 16:55:59;;;;;;;1.50;1.00;;;;;;;;;;4403115;32;20537;-55
2021/05/18 16:58:24;;;;;;;2.47;0.80;;;;;;;;;;4403935;32;20217;-55
2021/05/18 17:00:50;;;;;;;1.30;0.70;;;;;;;;;;4403874;32;20303;-55
2021/05/18 17:03:15;;;;;;;7.82;0.70;;;;;;;;;;4404117;32;20257;-56
2021/05/18 17:05:41;;;;;;;3.92;1.30;;;;;;;;;;4404479;32;20272;-55
2021/05/18 17:08:07;;;;;;;3.42;1.12;;;;;;;;;;4404089;32;20274;-55
2021/05/18 17:10:35;;;;;;;6.00;1.12;;;;;;;;;;4415613;32;20264;-57
2021/05/18 17:13:02;;;;;;;2.78;1.40;;;;;;;;;;4404083;32;20229;-55
2021/05/18 17:15:28;;;;;;;4.10;1.30;;;;;;;;;;4403991;32;20268;-56
2021/05/18 17:17:55;;;;;;;5.28;1.50;;;;;;;;;;4403667;32;20209;-56
2021/05/18 17:20:21;;;;;;;3.40;1.73;;;;;;;;;;4403930;32;20231;-56
2021/05/18 17:22:47;;;;;;;5.05;2.03;;;;;;;;;;4403603;32;20260;-55
2021/05/18 17:25:13;;;;;;;5.47;1.50;;;;;;;;;;4403796;32;20326;-55
2021/05/18 17:27:39;;;;;;;9.02;2.65;;;;;;;;;;4403886;32;20236;-55
2021/05/18 17:30:08;;;;;;;10.73;4.25;;;;;;;;;;4403483;32;20269;-55
2021/05/18 17:32:34;;;;;;;5.85;3.47;;;;;;;;;;4402928;32;20210;-55
2021/05/18 17:34:59;;;;;;;12.68;3.95;;;;;;;;;;4398609;32;20344;-55
2021/05/18 17:37:25;;;;;;;6.50;3.00;;;;;;;;;;4403453;32;20303;-56
2021/05/18 17:39:50;;;;;;;10.52;3.28;;;;;;;;;;4403675;32;20254;-55
2021/05/18 17:42:16;;;;;;;6.72;3.37;;;;;;;;;;4403914;32;20328;-56
2021/05/18 17:44:43;;;;;;;7.97;2.45;;;;;;;;;;4389310;32;20839;-56
2021/05/18 17:47:11;;;;;;;6.55;2.72;;;;;;;;;;4403282;32;20265;-56
2021/05/18 17:49:36;;;;;;;11.15;2.75;;;;;;;;;;4389846;32;20213;-56
2021/05/18 17:52:03;;;;;;;14.23;4.05;;;;;;;;;;4403277;32;20304;-58
2021/05/18 17:54:28;;;;;;;8.13;3.75;;;;;;;;;;4403167;32;20244;-55
2021/05/18 17:56:57;;;;;;;6.97;4.30;;;;;;;;;;4403351;32;20288;-56
2021/05/18 17:59:22;;;;;;;14.52;4.45;;;;;;;;;;4403168;32;20324;-56
2021/05/18 18:01:47;;;;;;;6.45;3.90;;;;;;;;;;4403039;32;20341;-56
2021/05/18 18:04:13;;;;;;;8.50;3.60;;;;;;;;;;4403216;32;20221;-55
2021/05/18 18:06:38;;;;;;;9.77;4.32;;;;;;;;;;4403018;32;20287;-55
2021/05/18 18:09:05;;;;;;;7.30;2.83;;;;;;;;;;4403198;32;20221;-55
2021/05/18 18:11:30;;;;;;;8.50;3.45;;;;;;;;;;4403082;32;20273;-56
2021/05/18 18:13:56;;;;;;;12.98;3.90;;;;;;;;;;4402874;32;20664;-55
2021/05/18 18:16:21;;;;;;;4.95;2.20;;;;;;;;;;4403282;32;20260;-56
2021/05/18 18:18:49;;;;;;;4.50;2.50;;;;;;;;;;4414291;32;20269;-56
2021/05/18 18:21:15;;;;;;;7.15;3.12;;;;;;;;;;4402802;32;20682;-56
2021/05/18 18:23:41;;;;;;;4.32;2.62;;;;;;;;;;4414348;32;20259;-55
2021/05/18 18:26:07;;;;;;;9.38;3.35;;;;;;;;;;4403097;32;20276;-56
2021/05/18 18:28:33;;;;;;;5.97;3.05;;;;;;;;;;4414272;32;20327;-57
2021/05/18 18:30:59;;;;;;;7.90;4.40;;;;;;;;;;4402816;32;20284;-56
2021/05/18 18:33:24;;;;;;;6.40;4.50;;;;;;;;;;4402748;32;20240;-55
2021/05/18 18:35:50;;;;;;;6.80;4.37;;;;;;;;;;4403271;32;20277;-55
2021/05/18 18:38:16;;;;;;;9.30;4.37;;;;;;;;;;4402835;32;20296;-55
2021/05/18 18:40:42;;;;;;;7.82;4.10;;;;;;;;;;4402740;32;20303;-56
2021/05/18 18:43:08;;;;;;;9.98;3.70;;;;;;;;;;4401715;32;20294;-55
2021/05/18 18:45:35;;;;;;;10.70;4.68;;;;;;;;;;4402507;32;20255;-55
2021/05/18 18:48:05;;;;;;;11.82;4.20;;;;;;;;;;4402659;32;20651;-55
2021/05/18 18:50:37;;;;;;;10.70;4.03;;;;;;;;;;4402431;32;20213;-56
2021/05/18 18:53:15;;;;;;;6.07;3.12;;;;;;;;;;4402676;32;20532;-55
2021/05/18 18:55:41;;;;;;;9.60;3.22;;;;;;;;;;4402402;32;20632;-55
2021/05/18 18:58:10;;;;;;;11.52;4.45;;;;;;;;;;4388465;32;20553;-56
2021/05/18 19:00:35;;;;;;;9.65;4.65;;;;;;;;;;4402455;32;20240;-55
2021/05/18 19:03:04;;;;;;;9.98;5.18;;;;;;;;;;4402371;32;20229;-55
2021/05/18 19:08:16;;;;;;;11.60;3.33;;;;;;;;;;4402519;32;20210;-55
2021/05/18 19:13:09;;;;;;;6.10;2.62;;;;;;;;;;4401993;32;20366;-55
2021/05/18 19:15:35;;;;;;;5.72;2.50;;;;;;;;;;4402385;32;20300;-55
2021/05/18 19:18:00;;;;;;;12.60;3.15;;;;;;;;;;4402006;32;20248;-54
2021/05/18 19:20:26;;;;;;;9.60;2.30;;;;;;;;;;4402309;32;20564;-55
2021/05/18 19:22:52;;;;;;;9.27;2.70;;;;;;;;;;4401080;32;20318;-54
2021/05/18 19:25:18;;;;;;;6.18;2.75;;;;;;;;;;4402443;32;20704;-54
2021/05/18 19:27:45;;;;;;;8.85;3.65;;;;;;;;;;4402072;32;20289;-54
2021/05/18 19:30:15;;;;;;;10.98;3.60;;;;;;;;;;4402143;32;20687;-55
2021/05/18 19:32:41;;;;;;;7.30;2.95;;;;;;;;;;4402185;32;20325;-55
2021/05/18 19:35:09;;;;;;;8.93;4.07;;;;;;;;;;4401949;32;20767;-54
2021/05/18 19:48:13;;;;;;;7.15;3.25;;;;;;;;;;4364695;32;20336;-54
2021/05/18 19:50:38;;;;;;;8.75;2.67;;;;;;;;;;4398102;32;20226;-54
2021/05/18 19:53:11;;;;;;;8.18;3.45;;;;;;;;;;4386606;32;20213;-54
2021/05/18 20:09:46;;;;;;;9.40;2.83;;;;;;;;;;4389923;32;20248;-55
2021/05/18 20:17:29;;;;;;;10.48;5.03;;;;;;;;;;4389539;32;20321;-55
2021/05/18 20:20:06;;;;;;;14.73;11.45;;;;;;;;;;4389987;32;20256;-55
2021/05/18 20:22:31;;;;;;;12.77;5.95;;;;;;;;;;4389612;32;20210;-55
2021/05/18 20:24:57;;;;;;;15.13;4.12;;;;;;;;;;4389928;32;20334;-56
2021/05/18 20:27:23;;;;;;;5.28;4.15;;;;;;;;;;4389507;32;20303;-57
2021/05/18 20:29:49;;;;;;;7.72;4.03;;;;;;;;;;4389309;32;20711;-56
2021/05/18 20:32:16;;;;;;;4.18;3.35;;;;;;;;;;4389514;32;20288;-56
2021/05/18 20:40:00;;;;;;;3.40;1.77;;;;;;;;;;4389260;32;20213;-55
2021/05/18 20:42:26;;;;;;;2.70;2.10;;;;;;;;;;4388980;32;20340;-56